West Hills, New York
Current Conditions -  °F | °C
As of 2:53 AM on Monday 26 Jan 2015 (Local Time) from KFRG Reporting Station
Overcast Overcast  
Wind Chill: 17°   Ceiling: 5500
Heat Index: 26°   Visibility: 10mi
Dew Point:   Wind: 9mph
Humidity: 49%   Direction: 40°NE
Pressure: 30.03"   Gusts: NA
Location:  40.8966°N, 73.4362°W
Report Text: KFRG 260753Z AUTO 04008KT 10SM OVC055 M03/M13 A3003 RMK AO2 SLP167 T10331128
Loading
Personal Weather Stations






























Interactive Weather Map New forecast layout! Learn more

10-Day Weather Forecast

Advertisements
Track Severe Weather on mobile